PHLI METAR and TAF | Updated Today

PHLI METAR

Lihue Airport

Observation time: 27 min. ago

PHLI 070853Z AUTO 29006KT 10SM -RA FEW070 BKN085 OVC110 21/20 A3000 RMK AO2 SLP157 P0002 60011 T02060200 50012 TSNO

Need help? Read our tutorial on how to read METARs or read the parsed version below.

Lihue Airport (PHLI) METAR

  • Weather conditions on Tue, 07 Dec 2021 08:53:00 +0000 (27 min. ago):
  • Present conditions: Light rain
  • Clouds: A few at 2134 meters; broken sky at 2591 meters; overcast sky at 3353 meters
  • Visibility: 16093 meters
  • Wind: 290 degrees at 6 knots
  • Temperature: 21 celsius
  • Dew point: 20 celsius
  • Pressure: 30 inHg
  • Remarks: AO2 SLP157 P0002 60011 T02060200 50012 TSNO


Useful to know...

PHLI TAF

Lihue Airport

PHLI 070528Z 0706/0806 VRB06KT 6SM SHRA BR SCT015 BKN025 OVC045
Observation time: 3:52 hr. ago
Need help? Read our tutorial on how to read TAFs or read the parsed version below.

Parsed version of TAF for Lihue Airport (PHLI)

  • From 07 December at 06:00 UTC, to day 08 of the month at 06:00 UTC
  • Clouds: Scattered at 457 meters; broken sky at 762 meters; overcast sky at 1372 meters
  • Visibility: 9656 meters
  • Wind: Variable at 6
  • Other: Showers of rain; mist